sensor_id;sensor_type;location;lat;lon;timestamp;P1;durP1;ratioP1;P2;durP2;ratioP2
16099;SDS011;8154;50.830;12.082;2024-02-23T00:00:15;0.88;;;0.50;;
16099;SDS011;8154;50.830;12.082;2024-02-23T00:02:44;0.80;;;0.50;;
16099;SDS011;8154;50.830;12.082;2024-02-23T00:05:13;1.43;;;0.57;;
16099;SDS011;8154;50.830;12.082;2024-02-23T00:07:39;0.63;;;0.40;;
16099;SDS011;8154;50.830;12.082;2024-02-23T00:10:06;0.70;;;0.50;;
16099;SDS011;8154;50.830;12.082;2024-02-23T00:12:32;0.68;;;0.40;;
16099;SDS011;8154;50.830;12.082;2024-02-23T00:14:58;0.60;;;0.45;;
16099;SDS011;8154;50.830;12.082;2024-02-23T00:17:39;1.33;;;0.60;;
16099;SDS011;8154;50.830;12.082;2024-02-23T00:20:08;0.90;;;0.50;;
16099;SDS011;8154;50.830;12.082;2024-02-23T00:22:41;1.05;;;0.50;;
16099;SDS011;8154;50.830;12.082;2024-02-23T00:25:08;1.05;;;0.55;;
16099;SDS011;8154;50.830;12.082;2024-02-23T00:27:34;0.77;;;0.55;;
16099;SDS011;8154;50.830;12.082;2024-02-23T00:30:01;1.40;;;0.60;;
16099;SDS011;8154;50.830;12.082;2024-02-23T00:32:27;0.77;;;0.50;;
16099;SDS011;8154;50.830;12.082;2024-02-23T00:34:53;1.70;;;0.60;;
16099;SDS011;8154;50.830;12.082;2024-02-23T00:37:19;1.38;;;0.55;;
16099;SDS011;8154;50.830;12.082;2024-02-23T00:39:47;0.82;;;0.43;;
16099;SDS011;8154;50.830;12.082;2024-02-23T00:42:15;0.80;;;0.57;;
16099;SDS011;8154;50.830;12.082;2024-02-23T00:44:46;1.08;;;0.50;;
16099;SDS011;8154;50.830;12.082;2024-02-23T00:47:15;0.80;;;0.50;;
16099;SDS011;8154;50.830;12.082;2024-02-23T00:49:41;0.80;;;0.50;;
16099;SDS011;8154;50.830;12.082;2024-02-23T00:52:07;0.70;;;0.50;;
16099;SDS011;8154;50.830;12.082;2024-02-23T00:54:33;0.80;;;0.50;;
16099;SDS011;8154;50.830;12.082;2024-02-23T00:57:00;0.70;;;0.50;;
16099;SDS011;8154;50.830;12.082;2024-02-23T00:59:26;1.25;;;0.63;;
16099;SDS011;8154;50.830;12.082;2024-02-23T01:01:56;0.85;;;0.60;;
16099;SDS011;8154;50.830;12.082;2024-02-23T01:04:24;1.35;;;0.50;;
16099;SDS011;8154;50.830;12.082;2024-02-23T01:06:54;0.80;;;0.50;;
16099;SDS011;8154;50.830;12.082;2024-02-23T01:09:23;0.80;;;0.50;;
16099;SDS011;8154;50.830;12.082;2024-02-23T01:11:49;0.70;;;0.50;;
16099;SDS011;8154;50.830;12.082;2024-02-23T01:14:35;1.00;;;0.50;;
16099;SDS011;8154;50.830;12.082;2024-02-23T01:17:02;0.80;;;0.50;;
16099;SDS011;8154;50.830;12.082;2024-02-23T01:19:28;0.70;;;0.40;;
16099;SDS011;8154;50.830;12.082;2024-02-23T01:21:55;0.93;;;0.50;;
16099;SDS011;8154;50.830;12.082;2024-02-23T01:24:27;0.80;;;0.50;;
16099;SDS011;8154;50.830;12.082;2024-02-23T01:26:57;0.60;;;0.40;;
16099;SDS011;8154;50.830;12.082;2024-02-23T01:29:26;0.77;;;0.45;;
16099;SDS011;8154;50.830;12.082;2024-02-23T01:31:55;0.80;;;0.50;;
16099;SDS011;8154;50.830;12.082;2024-02-23T01:34:22;0.60;;;0.40;;
16099;SDS011;8154;50.830;12.082;2024-02-23T01:36:48;1.63;;;0.50;;
16099;SDS011;8154;50.830;12.082;2024-02-23T01:39:14;1.02;;;0.50;;
16099;SDS011;8154;50.830;12.082;2024-02-23T01:41:40;0.88;;;0.50;;
16099;SDS011;8154;50.830;12.082;2024-02-23T01:44:12;0.80;;;0.40;;
16099;SDS011;8154;50.830;12.082;2024-02-23T01:46:41;0.77;;;0.50;;
16099;SDS011;8154;50.830;12.082;2024-02-23T01:49:08;0.60;;;0.50;;
16099;SDS011;8154;50.830;12.082;2024-02-23T01:51:37;0.60;;;0.43;;
16099;SDS011;8154;50.830;12.082;2024-02-23T01:54:07;1.27;;;0.70;;
16099;SDS011;8154;50.830;12.082;2024-02-23T01:56:56;1.00;;;0.50;;
16099;SDS011;8154;50.830;12.082;2024-02-23T01:59:24;0.90;;;0.50;;
16099;SDS011;8154;50.830;12.082;2024-02-23T02:01:52;1.00;;;0.50;;
16099;SDS011;8154;50.830;12.082;2024-02-23T02:04:19;0.80;;;0.50;;
16099;SDS011;8154;50.830;12.082;2024-02-23T02:06:48;1.05;;;0.50;;
16099;SDS011;8154;50.830;12.082;2024-02-23T02:09:17;0.80;;;0.50;;
16099;SDS011;8154;50.830;12.082;2024-02-23T02:11:49;0.70;;;0.47;;
16099;SDS011;8154;50.830;12.082;2024-02-23T02:14:16;0.80;;;0.50;;
16099;SDS011;8154;50.830;12.082;2024-02-23T02:16:43;0.50;;;0.40;;
16099;SDS011;8154;50.830;12.082;2024-02-23T02:19:11;1.35;;;0.60;;
16099;SDS011;8154;50.830;12.082;2024-02-23T02:21:38;1.00;;;0.50;;
16099;SDS011;8154;50.830;12.082;2024-02-23T02:24:05;0.65;;;0.43;;
16099;SDS011;8154;50.830;12.082;2024-02-23T02:26:32;0.85;;;0.50;;
16099;SDS011;8154;50.830;12.082;2024-02-23T02:29:01;1.00;;;0.50;;
16099;SDS011;8154;50.830;12.082;2024-02-23T02:31:30;0.80;;;0.70;;
16099;SDS011;8154;50.830;12.082;2024-02-23T02:34:04;1.27;;;0.50;;
16099;SDS011;8154;50.830;12.082;2024-02-23T02:36:34;0.55;;;0.40;;
16099;SDS011;8154;50.830;12.082;2024-02-23T02:39:17;0.70;;;0.47;;
16099;SDS011;8154;50.830;12.082;2024-02-23T02:41:43;0.90;;;0.50;;
16099;SDS011;8154;50.830;12.082;2024-02-23T02:44:09;0.80;;;0.50;;
16099;SDS011;8154;50.830;12.082;2024-02-23T02:46:36;1.00;;;0.50;;
16099;SDS011;8154;50.830;12.082;2024-02-23T02:49:03;0.77;;;0.50;;
16099;SDS011;8154;50.830;12.082;2024-02-23T02:51:30;0.70;;;0.50;;
16099;SDS011;8154;50.830;12.082;2024-02-23T02:53:56;1.05;;;0.50;;
16099;SDS011;8154;50.830;12.082;2024-02-23T02:56:25;0.70;;;0.50;;
16099;SDS011;8154;50.830;12.082;2024-02-23T02:58:52;0.80;;;0.50;;
16099;SDS011;8154;50.830;12.082;2024-02-23T03:01:18;0.80;;;0.50;;
16099;SDS011;8154;50.830;12.082;2024-02-23T03:03:44;1.00;;;0.57;;
16099;SDS011;8154;50.830;12.082;2024-02-23T03:06:11;0.85;;;0.50;;
16099;SDS011;8154;50.830;12.082;2024-02-23T03:08:37;0.70;;;0.50;;
16099;SDS011;8154;50.830;12.082;2024-02-23T03:11:03;0.80;;;0.50;;
16099;SDS011;8154;50.830;12.082;2024-02-23T03:13:33;0.77;;;0.50;;
16099;SDS011;8154;50.830;12.082;2024-02-23T03:16:01;1.00;;;0.60;;
16099;SDS011;8154;50.830;12.082;2024-02-23T03:18:30;0.60;;;0.40;;
16099;SDS011;8154;50.830;12.082;2024-02-23T03:20:57;0.80;;;0.50;;
16099;SDS011;8154;50.830;12.082;2024-02-23T03:23:23;0.60;;;0.50;;
16099;SDS011;8154;50.830;12.082;2024-02-23T03:25:49;1.23;;;0.50;;
16099;SDS011;8154;50.830;12.082;2024-02-23T03:28:34;1.02;;;0.52;;
16099;SDS011;8154;50.830;12.082;2024-02-23T03:31:00;0.60;;;0.50;;
16099;SDS011;8154;50.830;12.082;2024-02-23T03:33:43;0.75;;;0.50;;
16099;SDS011;8154;50.830;12.082;2024-02-23T03:36:09;0.83;;;0.50;;
16099;SDS011;8154;50.830;12.082;2024-02-23T03:38:36;1.05;;;0.50;;
16099;SDS011;8154;50.830;12.082;2024-02-23T03:41:05;1.17;;;0.70;;
16099;SDS011;8154;50.830;12.082;2024-02-23T03:43:34;0.75;;;0.50;;
16099;SDS011;8154;50.830;12.082;2024-02-23T03:46:20;0.70;;;0.50;;
16099;SDS011;8154;50.830;12.082;2024-02-23T03:48:47;0.90;;;0.50;;
16099;SDS011;8154;50.830;12.082;2024-02-23T03:51:13;1.10;;;0.50;;
16099;SDS011;8154;50.830;12.082;2024-02-23T03:53:41;0.60;;;0.40;;
16099;SDS011;8154;50.830;12.082;2024-02-23T03:56:09;1.25;;;0.50;;
16099;SDS011;8154;50.830;12.082;2024-02-23T03:58:39;0.70;;;0.50;;
16099;SDS011;8154;50.830;12.082;2024-02-23T04:01:08;0.87;;;0.50;;
16099;SDS011;8154;50.830;12.082;2024-02-23T04:03:38;0.80;;;0.50;;
16099;SDS011;8154;50.830;12.082;2024-02-23T04:06:04;1.15;;;0.50;;
16099;SDS011;8154;50.830;12.082;2024-02-23T04:08:31;0.80;;;0.50;;
16099;SDS011;8154;50.830;12.082;2024-02-23T04:11:14;0.88;;;0.50;;
16099;SDS011;8154;50.830;12.082;2024-02-23T04:13:41;0.57;;;0.40;;
16099;SDS011;8154;50.830;12.082;2024-02-23T04:16:07;0.77;;;0.50;;
16099;SDS011;8154;50.830;12.082;2024-02-23T04:18:37;0.70;;;0.45;;
16099;SDS011;8154;50.830;12.082;2024-02-23T04:21:06;0.93;;;0.50;;
16099;SDS011;8154;50.830;12.082;2024-02-23T04:23:35;0.68;;;0.45;;
16099;SDS011;8154;50.830;12.082;2024-02-23T04:26:01;0.80;;;0.40;;
16099;SDS011;8154;50.830;12.082;2024-02-23T04:28:28;0.75;;;0.40;;
16099;SDS011;8154;50.830;12.082;2024-02-23T04:30:56;0.60;;;0.50;;
16099;SDS011;8154;50.830;12.082;2024-02-23T04:33:23;0.75;;;0.50;;
16099;SDS011;8154;50.830;12.082;2024-02-23T04:36:07;0.70;;;0.50;;
16099;SDS011;8154;50.830;12.082;2024-02-23T04:38:33;0.57;;;0.40;;
16099;SDS011;8154;50.830;12.082;2024-02-23T04:41:06;0.80;;;0.40;;
16099;SDS011;8154;50.830;12.082;2024-02-23T04:43:33;0.73;;;0.50;;
16099;SDS011;8154;50.830;12.082;2024-02-23T04:46:03;0.60;;;0.40;;
16099;SDS011;8154;50.830;12.082;2024-02-23T04:48:31;0.80;;;0.50;;
16099;SDS011;8154;50.830;12.082;2024-02-23T04:50:58;0.83;;;0.40;;
16099;SDS011;8154;50.830;12.082;2024-02-23T04:53:25;0.60;;;0.47;;
16099;SDS011;8154;50.830;12.082;2024-02-23T04:55:53;1.35;;;0.50;;
16099;SDS011;8154;50.830;12.082;2024-02-23T04:58:20;0.70;;;0.50;;
16099;SDS011;8154;50.830;12.082;2024-02-23T05:01:07;0.60;;;0.40;;
16099;SDS011;8154;50.830;12.082;2024-02-23T05:03:36;0.97;;;0.50;;
16099;SDS011;8154;50.830;12.082;2024-02-23T05:06:05;0.50;;;0.40;;
16099;SDS011;8154;50.830;12.082;2024-02-23T05:08:32;0.60;;;0.40;;
16099;SDS011;8154;50.830;12.082;2024-02-23T05:11:01;0.60;;;0.50;;
16099;SDS011;8154;50.830;12.082;2024-02-23T05:13:27;0.50;;;0.40;;
16099;SDS011;8154;50.830;12.082;2024-02-23T05:15:55;0.80;;;0.50;;
16099;SDS011;8154;50.830;12.082;2024-02-23T05:18:22;0.50;;;0.40;;
16099;SDS011;8154;50.830;12.082;2024-02-23T05:20:49;0.70;;;0.40;;
16099;SDS011;8154;50.830;12.082;2024-02-23T05:23:18;1.02;;;0.50;;
16099;SDS011;8154;50.830;12.082;2024-02-23T05:25:47;0.68;;;0.43;;
16099;SDS011;8154;50.830;12.082;2024-02-23T05:28:16;0.53;;;0.40;;
16099;SDS011;8154;50.830;12.082;2024-02-23T05:30:44;0.98;;;0.50;;
16099;SDS011;8154;50.830;12.082;2024-02-23T05:33:10;0.50;;;0.40;;
16099;SDS011;8154;50.830;12.082;2024-02-23T05:35:37;0.90;;;0.50;;
16099;SDS011;8154;50.830;12.082;2024-02-23T05:38:22;0.70;;;0.45;;
16099;SDS011;8154;50.830;12.082;2024-02-23T05:40:48;1.10;;;0.50;;
16099;SDS011;8154;50.830;12.082;2024-02-23T05:43:32;0.80;;;0.47;;
16099;SDS011;8154;50.830;12.082;2024-02-23T05:46:00;1.15;;;0.63;;
16099;SDS011;8154;50.830;12.082;2024-02-23T05:48:27;1.00;;;0.50;;
16099;SDS011;8154;50.830;12.082;2024-02-23T05:50:57;0.93;;;0.50;;
16099;SDS011;8154;50.830;12.082;2024-02-23T05:53:26;0.80;;;0.40;;
16099;SDS011;8154;50.830;12.082;2024-02-23T05:55:52;1.10;;;0.57;;
16099;SDS011;8154;50.830;12.082;2024-02-23T05:58:18;1.20;;;0.60;;
16099;SDS011;8154;50.830;12.082;2024-02-23T06:00:44;0.85;;;0.50;;
16099;SDS011;8154;50.830;12.082;2024-02-23T06:03:11;1.02;;;0.70;;
16099;SDS011;8154;50.830;12.082;2024-02-23T06:05:38;1.30;;;0.60;;
16099;SDS011;8154;50.830;12.082;2024-02-23T06:08:07;0.90;;;0.50;;
16099;SDS011;8154;50.830;12.082;2024-02-23T06:10:36;1.83;;;0.90;;
16099;SDS011;8154;50.830;12.082;2024-02-23T06:13:06;1.10;;;0.60;;
16099;SDS011;8154;50.830;12.082;2024-02-23T06:15:33;1.50;;;0.70;;
16099;SDS011;8154;50.830;12.082;2024-02-23T06:18:01;1.47;;;0.73;;
16099;SDS011;8154;50.830;12.082;2024-02-23T06:20:27;1.05;;;0.50;;
16099;SDS011;8154;50.830;12.082;2024-02-23T06:22:53;1.23;;;0.70;;
16099;SDS011;8154;50.830;12.082;2024-02-23T06:25:35;1.30;;;0.60;;
16099;SDS011;8154;50.830;12.082;2024-02-23T06:28:21;1.35;;;0.60;;
16099;SDS011;8154;50.830;12.082;2024-02-23T06:31:08;1.23;;;0.63;;
16099;SDS011;8154;50.830;12.082;2024-02-23T06:33:35;1.48;;;0.50;;
16099;SDS011;8154;50.830;12.082;2024-02-23T06:36:07;1.48;;;0.70;;
16099;SDS011;8154;50.830;12.082;2024-02-23T06:38:34;1.00;;;0.65;;
16099;SDS011;8154;50.830;12.082;2024-02-23T06:41:03;1.25;;;0.60;;
16099;SDS011;8154;50.830;12.082;2024-02-23T06:43:29;1.30;;;0.60;;
16099;SDS011;8154;50.830;12.082;2024-02-23T06:45:55;1.30;;;0.60;;
16099;SDS011;8154;50.830;12.082;2024-02-23T06:48:23;0.95;;;0.60;;
16099;SDS011;8154;50.830;12.082;2024-02-23T06:50:50;0.85;;;0.60;;
16099;SDS011;8154;50.830;12.082;2024-02-23T06:53:20;1.30;;;0.60;;
16099;SDS011;8154;50.830;12.082;2024-02-23T06:55:46;0.97;;;0.60;;
16099;SDS011;8154;50.830;12.082;2024-02-23T06:58:15;1.20;;;0.60;;
16099;SDS011;8154;50.830;12.082;2024-02-23T07:00:44;1.15;;;0.60;;
16099;SDS011;8154;50.830;12.082;2024-02-23T07:03:10;0.85;;;0.60;;
16099;SDS011;8154;50.830;12.082;2024-02-23T07:05:37;1.55;;;0.60;;
16099;SDS011;8154;50.830;12.082;2024-02-23T07:08:21;1.20;;;0.60;;
16099;SDS011;8154;50.830;12.082;2024-02-23T07:10:47;1.13;;;0.55;;
16099;SDS011;8154;50.830;12.082;2024-02-23T07:13:15;1.33;;;0.70;;
16099;SDS011;8154;50.830;12.082;2024-02-23T07:15:46;1.13;;;0.52;;
16099;SDS011;8154;50.830;12.082;2024-02-23T07:18:15;1.15;;;0.60;;
16099;SDS011;8154;50.830;12.082;2024-02-23T07:20:44;0.97;;;0.50;;
16099;SDS011;8154;50.830;12.082;2024-02-23T07:23:10;1.33;;;0.60;;
16099;SDS011;8154;50.830;12.082;2024-02-23T07:25:38;1.00;;;0.50;;
16099;SDS011;8154;50.830;12.082;2024-02-23T07:28:05;0.93;;;0.60;;
16099;SDS011;8154;50.830;12.082;2024-02-23T07:30:31;1.42;;;0.65;;
16099;SDS011;8154;50.830;12.082;2024-02-23T07:33:00;1.20;;;0.67;;
16099;SDS011;8154;50.830;12.082;2024-02-23T07:35:30;0.90;;;0.60;;
16099;SDS011;8154;50.830;12.082;2024-02-23T07:37:59;1.40;;;0.60;;
16099;SDS011;8154;50.830;12.082;2024-02-23T07:40:28;0.90;;;0.60;;
16099;SDS011;8154;50.830;12.082;2024-02-23T07:42:57;1.23;;;0.60;;
16099;SDS011;8154;50.830;12.082;2024-02-23T07:45:23;1.80;;;0.90;;
16099;SDS011;8154;50.830;12.082;2024-02-23T07:47:49;1.77;;;0.85;;
16099;SDS011;8154;50.830;12.082;2024-02-23T07:50:15;2.42;;;1.10;;
16099;SDS011;8154;50.830;12.082;2024-02-23T07:52:44;3.03;;;1.23;;
16099;SDS011;8154;50.830;12.082;2024-02-23T07:55:10;2.92;;;1.20;;
16099;SDS011;8154;50.830;12.082;2024-02-23T07:57:39;2.27;;;0.93;;
16099;SDS011;8154;50.830;12.082;2024-02-23T08:00:09;2.88;;;1.30;;
16099;SDS011;8154;50.830;12.082;2024-02-23T08:02:36;3.20;;;1.42;;
16099;SDS011;8154;50.830;12.082;2024-02-23T08:05:03;4.05;;;1.58;;
16099;SDS011;8154;50.830;12.082;2024-02-23T08:07:29;3.85;;;1.77;;
16099;SDS011;8154;50.830;12.082;2024-02-23T08:09:56;4.47;;;1.90;;
16099;SDS011;8154;50.830;12.082;2024-02-23T08:12:24;3.67;;;1.73;;
16099;SDS011;8154;50.830;12.082;2024-02-23T08:14:51;4.03;;;1.80;;
16099;SDS011;8154;50.830;12.082;2024-02-23T08:17:37;4.30;;;2.03;;
16099;SDS011;8154;50.830;12.082;2024-02-23T08:20:04;5.03;;;2.15;;
16099;SDS011;8154;50.830;12.082;2024-02-23T08:22:33;5.00;;;2.33;;
16099;SDS011;8154;50.830;12.082;2024-02-23T08:25:02;4.68;;;2.33;;
16099;SDS011;8154;50.830;12.082;2024-02-23T08:27:31;5.38;;;2.38;;
16099;SDS011;8154;50.830;12.082;2024-02-23T08:29:58;4.80;;;2.25;;
16099;SDS011;8154;50.830;12.082;2024-02-23T08:32:24;5.25;;;2.33;;
16099;SDS011;8154;50.830;12.082;2024-02-23T08:34:54;4.93;;;2.37;;
16099;SDS011;8154;50.830;12.082;2024-02-23T08:37:25;5.20;;;2.47;;
16099;SDS011;8154;50.830;12.082;2024-02-23T08:39:56;4.93;;;2.45;;
16099;SDS011;8154;50.830;12.082;2024-02-23T08:42:27;4.53;;;2.20;;
16099;SDS011;8154;50.830;12.082;2024-02-23T08:44:55;5.43;;;2.42;;
16099;SDS011;8154;50.830;12.082;2024-02-23T08:47:24;5.03;;;2.33;;
16099;SDS011;8154;50.830;12.082;2024-02-23T08:49:54;4.57;;;2.20;;
16099;SDS011;8154;50.830;12.082;2024-02-23T08:52:21;5.35;;;2.60;;
16099;SDS011;8154;50.830;12.082;2024-02-23T08:54:47;4.60;;;2.10;;
16099;SDS011;8154;50.830;12.082;2024-02-23T08:57:15;4.78;;;2.30;;
16099;SDS011;8154;50.830;12.082;2024-02-23T08:59:48;5.13;;;2.40;;
16099;SDS011;8154;50.830;12.082;2024-02-23T09:02:17;4.65;;;2.20;;
16099;SDS011;8154;50.830;12.082;2024-02-23T09:04:47;4.18;;;1.92;;
16099;SDS011;8154;50.830;12.082;2024-02-23T09:07:15;4.72;;;2.00;;
16099;SDS011;8154;50.830;12.082;2024-02-23T09:09:47;4.63;;;2.13;;
16099;SDS011;8154;50.830;12.082;2024-02-23T09:12:14;4.30;;;1.97;;
16099;SDS011;8154;50.830;12.082;2024-02-23T09:14:42;4.97;;;2.28;;
16099;SDS011;8154;50.830;12.082;2024-02-23T09:17:09;4.78;;;2.17;;
16099;SDS011;8154;50.830;12.082;2024-02-23T09:19:38;4.70;;;1.98;;
16099;SDS011;8154;50.830;12.082;2024-02-23T09:22:04;4.57;;;2.10;;
16099;SDS011;8154;50.830;12.082;2024-02-23T09:24:33;4.43;;;1.93;;
16099;SDS011;8154;50.830;12.082;2024-02-23T09:26:59;4.55;;;1.98;;
16099;SDS011;8154;50.830;12.082;2024-02-23T09:29:27;5.25;;;2.00;;
16099;SDS011;8154;50.830;12.082;2024-02-23T09:31:53;4.10;;;2.00;;
16099;SDS011;8154;50.830;12.082;2024-02-23T09:34:19;4.78;;;2.10;;
16099;SDS011;8154;50.830;12.082;2024-02-23T09:36:45;4.03;;;2.30;;
16099;SDS011;8154;50.830;12.082;2024-02-23T09:39:11;4.55;;;1.92;;
16099;SDS011;8154;50.830;12.082;2024-02-23T09:41:39;4.47;;;1.90;;
16099;SDS011;8154;50.830;12.082;2024-02-23T09:44:05;4.20;;;1.92;;
16099;SDS011;8154;50.830;12.082;2024-02-23T09:46:38;4.68;;;2.13;;
16099;SDS011;8154;50.830;12.082;2024-02-23T09:49:11;4.63;;;2.00;;
16099;SDS011;8154;50.830;12.082;2024-02-23T09:51:42;4.80;;;2.30;;
16099;SDS011;8154;50.830;12.082;2024-02-23T09:54:12;3.35;;;1.60;;
16099;SDS011;8154;50.830;12.082;2024-02-23T09:56:38;4.22;;;1.85;;
16099;SDS011;8154;50.830;12.082;2024-02-23T09:59:05;4.20;;;1.90;;
16099;SDS011;8154;50.830;12.082;2024-02-23T10:01:32;3.73;;;1.70;;
16099;SDS011;8154;50.830;12.082;2024-02-23T10:04:02;4.28;;;1.90;;
16099;SDS011;8154;50.830;12.082;2024-02-23T10:06:49;3.92;;;1.88;;
16099;SDS011;8154;50.830;12.082;2024-02-23T10:09:18;4.32;;;1.95;;
16099;SDS011;8154;50.830;12.082;2024-02-23T10:11:52;3.80;;;2.08;;
16099;SDS011;8154;50.830;12.082;2024-02-23T10:14:19;4.00;;;1.70;;
16099;SDS011;8154;50.830;12.082;2024-02-23T10:16:48;4.13;;;1.90;;
16099;SDS011;8154;50.830;12.082;2024-02-23T10:19:21;4.68;;;2.00;;
16099;SDS011;8154;50.830;12.082;2024-02-23T10:21:47;3.78;;;1.85;;
16099;SDS011;8154;50.830;12.082;2024-02-23T10:24:17;4.63;;;1.90;;
16099;SDS011;8154;50.830;12.082;2024-02-23T10:26:44;4.47;;;1.90;;
16099;SDS011;8154;50.830;12.082;2024-02-23T10:29:14;4.40;;;1.95;;
16099;SDS011;8154;50.830;12.082;2024-02-23T10:31:43;4.05;;;1.80;;
16099;SDS011;8154;50.830;12.082;2024-02-23T10:34:19;4.15;;;1.90;;
16099;SDS011;8154;50.830;12.082;2024-02-23T10:36:52;4.15;;;1.77;;
16099;SDS011;8154;50.830;12.082;2024-02-23T10:39:21;3.97;;;1.77;;
16099;SDS011;8154;50.830;12.082;2024-02-23T10:41:56;4.20;;;1.90;;
16099;SDS011;8154;50.830;12.082;2024-02-23T10:44:29;3.55;;;1.60;;
16099;SDS011;8154;50.830;12.082;2024-02-23T10:46:56;4.53;;;2.05;;
16099;SDS011;8154;50.830;12.082;2024-02-23T10:49:26;4.00;;;1.80;;
16099;SDS011;8154;50.830;12.082;2024-02-23T10:51:56;4.03;;;1.90;;
16099;SDS011;8154;50.830;12.082;2024-02-23T10:54:25;4.03;;;1.80;;
16099;SDS011;8154;50.830;12.082;2024-02-23T10:56:52;3.75;;;1.70;;
16099;SDS011;8154;50.830;12.082;2024-02-23T10:59:24;3.85;;;1.65;;
16099;SDS011;8154;50.830;12.082;2024-02-23T11:01:51;3.65;;;1.67;;
16099;SDS011;8154;50.830;12.082;2024-02-23T11:04:19;4.10;;;1.83;;
16099;SDS011;8154;50.830;12.082;2024-02-23T11:06:50;4.05;;;1.80;;
16099;SDS011;8154;50.830;12.082;2024-02-23T11:09:32;4.03;;;1.80;;
16099;SDS011;8154;50.830;12.082;2024-02-23T11:12:21;4.20;;;1.70;;
16099;SDS011;8154;50.830;12.082;2024-02-23T11:14:56;4.10;;;1.83;;
16099;SDS011;8154;50.830;12.082;2024-02-23T11:17:29;3.70;;;1.83;;
16099;SDS011;8154;50.830;12.082;2024-02-23T11:20:04;4.15;;;1.70;;
16099;SDS011;8154;50.830;12.082;2024-02-23T11:22:35;3.88;;;1.80;;
16099;SDS011;8154;50.830;12.082;2024-02-23T11:25:05;4.20;;;1.95;;
16099;SDS011;8154;50.830;12.082;2024-02-23T11:27:39;4.32;;;1.80;;
16099;SDS011;8154;50.830;12.082;2024-02-23T11:30:08;4.63;;;2.00;;
16099;SDS011;8154;50.830;12.082;2024-02-23T11:32:37;3.90;;;1.83;;
16099;SDS011;8154;50.830;12.082;2024-02-23T11:35:10;3.85;;;1.77;;
16099;SDS011;8154;50.830;12.082;2024-02-23T11:37:58;4.00;;;1.60;;
16099;SDS011;8154;50.830;12.082;2024-02-23T11:40:34;3.70;;;1.77;;
16099;SDS011;8154;50.830;12.082;2024-02-23T11:43:04;4.43;;;1.70;;
16099;SDS011;8154;50.830;12.082;2024-02-23T11:45:31;4.28;;;1.77;;
16099;SDS011;8154;50.830;12.082;2024-02-23T11:47:57;3.72;;;1.55;;
16099;SDS011;8154;50.830;12.082;2024-02-23T11:50:26;3.83;;;1.63;;
16099;SDS011;8154;50.830;12.082;2024-02-23T11:52:55;4.93;;;1.90;;
16099;SDS011;8154;50.830;12.082;2024-02-23T11:55:21;3.77;;;1.60;;
16099;SDS011;8154;50.830;12.082;2024-02-23T11:57:50;3.58;;;1.70;;
16099;SDS011;8154;50.830;12.082;2024-02-23T12:00:20;4.10;;;1.80;;
16099;SDS011;8154;50.830;12.082;2024-02-23T12:02:48;3.60;;;1.55;;
16099;SDS011;8154;50.830;12.082;2024-02-23T12:05:19;3.30;;;1.58;;
16099;SDS011;8154;50.830;12.082;2024-02-23T12:07:45;3.60;;;1.60;;
16099;SDS011;8154;50.830;12.082;2024-02-23T12:10:11;3.67;;;1.52;;
16099;SDS011;8154;50.830;12.082;2024-02-23T12:12:39;3.90;;;1.60;;
16099;SDS011;8154;50.830;12.082;2024-02-23T12:15:23;4.05;;;1.73;;
16099;SDS011;8154;50.830;12.082;2024-02-23T12:17:57;3.70;;;1.60;;
16099;SDS011;8154;50.830;12.082;2024-02-23T12:20:27;3.37;;;1.60;;
16099;SDS011;8154;50.830;12.082;2024-02-23T12:22:56;3.50;;;1.67;;
16099;SDS011;8154;50.830;12.082;2024-02-23T12:25:25;3.95;;;1.60;;
16099;SDS011;8154;50.830;12.082;2024-02-23T12:27:55;3.45;;;1.40;;
16099;SDS011;8154;50.830;12.082;2024-02-23T12:30:26;3.22;;;1.50;;
16099;SDS011;8154;50.830;12.082;2024-02-23T12:33:03;3.27;;;1.50;;
16099;SDS011;8154;50.830;12.082;2024-02-23T12:35:34;3.92;;;1.70;;
16099;SDS011;8154;50.830;12.082;2024-02-23T12:38:01;3.42;;;1.52;;
16099;SDS011;8154;50.830;12.082;2024-02-23T12:40:30;3.75;;;1.70;;
16099;SDS011;8154;50.830;12.082;2024-02-23T12:42:59;3.55;;;1.60;;
16099;SDS011;8154;50.830;12.082;2024-02-23T12:45:28;3.53;;;1.53;;
16099;SDS011;8154;50.830;12.082;2024-02-23T12:47:57;3.38;;;1.40;;
16099;SDS011;8154;50.830;12.082;2024-02-23T12:50:24;3.60;;;1.45;;
16099;SDS011;8154;50.830;12.082;2024-02-23T12:52:50;3.95;;;1.80;;
16099;SDS011;8154;50.830;12.082;2024-02-23T12:55:17;2.38;;;1.30;;
16099;SDS011;8154;50.830;12.082;2024-02-23T12:57:44;3.23;;;1.50;;
16099;SDS011;8154;50.830;12.082;2024-02-23T13:00:10;3.42;;;1.40;;
16099;SDS011;8154;50.830;12.082;2024-02-23T13:02:40;3.42;;;1.40;;
16099;SDS011;8154;50.830;12.082;2024-02-23T13:05:08;3.40;;;1.50;;
16099;SDS011;8154;50.830;12.082;2024-02-23T13:07:39;3.03;;;1.27;;
16099;SDS011;8154;50.830;12.082;2024-02-23T13:10:10;3.43;;;1.60;;
16099;SDS011;8154;50.830;12.082;2024-02-23T13:12:36;3.15;;;1.50;;
16099;SDS011;8154;50.830;12.082;2024-02-23T13:15:04;3.00;;;1.40;;
16099;SDS011;8154;50.830;12.082;2024-02-23T13:17:32;2.92;;;1.30;;
16099;SDS011;8154;50.830;12.082;2024-02-23T13:19:58;2.90;;;1.40;;
16099;SDS011;8154;50.830;12.082;2024-02-23T13:22:24;2.73;;;1.33;;
16099;SDS011;8154;50.830;12.082;2024-02-23T13:24:53;3.05;;;1.33;;
16099;SDS011;8154;50.830;12.082;2024-02-23T13:27:22;2.30;;;1.10;;
16099;SDS011;8154;50.830;12.082;2024-02-23T13:29:51;2.85;;;1.30;;
16099;SDS011;8154;50.830;12.082;2024-02-23T13:32:20;3.28;;;1.50;;
16099;SDS011;8154;50.830;12.082;2024-02-23T13:34:47;3.10;;;1.40;;
16099;SDS011;8154;50.830;12.082;2024-02-23T13:37:18;3.15;;;1.20;;
16099;SDS011;8154;50.830;12.082;2024-02-23T13:39:44;3.08;;;1.20;;
16099;SDS011;8154;50.830;12.082;2024-02-23T13:42:10;2.90;;;1.20;;
16099;SDS011;8154;50.830;12.082;2024-02-23T13:44:36;3.13;;;1.30;;
16099;SDS011;8154;50.830;12.082;2024-02-23T13:47:03;3.37;;;1.40;;
16099;SDS011;8154;50.830;12.082;2024-02-23T13:49:32;3.05;;;1.50;;
16099;SDS011;8154;50.830;12.082;2024-02-23T13:51:59;2.90;;;1.20;;
16099;SDS011;8154;50.830;12.082;2024-02-23T13:54:26;3.10;;;1.40;;
16099;SDS011;8154;50.830;12.082;2024-02-23T13:56:52;3.40;;;1.35;;
16099;SDS011;8154;50.830;12.082;2024-02-23T13:59:19;2.70;;;1.27;;
16099;SDS011;8154;50.830;12.082;2024-02-23T14:01:45;2.65;;;1.20;;
16099;SDS011;8154;50.830;12.082;2024-02-23T14:04:11;3.00;;;1.40;;
16099;SDS011;8154;50.830;12.082;2024-02-23T14:06:57;3.08;;;1.50;;
16099;SDS011;8154;50.830;12.082;2024-02-23T14:09:25;3.58;;;1.48;;
16099;SDS011;8154;50.830;12.082;2024-02-23T14:11:54;3.20;;;1.40;;
16099;SDS011;8154;50.830;12.082;2024-02-23T14:14:21;2.67;;;1.30;;
16099;SDS011;8154;50.830;12.082;2024-02-23T14:16:51;3.53;;;1.55;;
16099;SDS011;8154;50.830;12.082;2024-02-23T14:19:37;2.70;;;1.23;;
16099;SDS011;8154;50.830;12.082;2024-02-23T14:22:05;3.13;;;1.50;;
16099;SDS011;8154;50.830;12.082;2024-02-23T14:24:31;3.23;;;1.47;;
16099;SDS011;8154;50.830;12.082;2024-02-23T14:26:57;2.80;;;1.20;;
16099;SDS011;8154;50.830;12.082;2024-02-23T14:29:26;2.65;;;1.10;;
16099;SDS011;8154;50.830;12.082;2024-02-23T14:31:55;2.92;;;1.40;;
16099;SDS011;8154;50.830;12.082;2024-02-23T14:34:24;2.67;;;1.20;;
16099;SDS011;8154;50.830;12.082;2024-02-23T14:36:54;2.47;;;1.20;;
16099;SDS011;8154;50.830;12.082;2024-02-23T14:39:20;2.88;;;1.23;;
16099;SDS011;8154;50.830;12.082;2024-02-23T14:41:47;2.65;;;1.08;;
16099;SDS011;8154;50.830;12.082;2024-02-23T14:44:14;2.63;;;1.20;;
16099;SDS011;8154;50.830;12.082;2024-02-23T14:46:40;2.63;;;1.17;;
16099;SDS011;8154;50.830;12.082;2024-02-23T14:49:06;2.77;;;1.20;;
16099;SDS011;8154;50.830;12.082;2024-02-23T14:51:35;2.50;;;1.20;;
16099;SDS011;8154;50.830;12.082;2024-02-23T14:54:05;2.95;;;1.20;;
16099;SDS011;8154;50.830;12.082;2024-02-23T14:56:35;2.13;;;1.10;;
16099;SDS011;8154;50.830;12.082;2024-02-23T14:59:04;2.75;;;1.30;;